createdAt,value
2022-10-16T00:19:32.853Z,1.00
2022-10-16T01:20:48.663Z,0.95
2022-10-16T01:32:13.264Z,1.35
2022-10-16T01:41:07.206Z,1.00
2022-10-16T01:44:19.782Z,1.00
2022-10-16T01:55:53.643Z,0.80
2022-10-16T01:59:12.170Z,0.90
2022-10-16T02:13:59.218Z,1.10
2022-10-16T02:17:11.840Z,1.13
2022-10-16T02:20:15.083Z,1.20
2022-10-16T03:32:09.184Z,1.40
2022-10-16T03:34:12.011Z,1.20
2022-10-16T04:22:20.594Z,2.13
2022-10-16T05:03:42.213Z,1.60
2022-10-16T05:06:25.824Z,1.60
2022-10-16T05:10:07.162Z,1.63
2022-10-16T05:27:08.463Z,1.42
2022-10-16T05:48:55.366Z,1.30
2022-10-16T06:06:11.531Z,1.30
2022-10-16T18:19:29.056Z,5.50
2022-10-16T18:22:08.043Z,5.28
2022-10-16T19:23:01.270Z,4.15
2022-10-16T19:29:18.118Z,3.60
2022-10-16T19:32:07.542Z,4.25
2022-10-16T19:34:50.946Z,4.50
2022-10-16T19:37:30.036Z,3.72
2022-10-16T19:40:02.874Z,3.47
2022-10-16T19:42:31.363Z,3.20
2022-10-16T19:45:09.322Z,3.17
2022-10-16T19:47:42.999Z,2.55
2022-10-16T19:53:16.141Z,2.38
2022-10-16T19:56:22.090Z,2.30
2022-10-16T19:59:25.465Z,1.95
2022-10-16T20:01:47.515Z,2.75
2022-10-16T20:07:16.826Z,6.45
2022-10-16T20:09:50.674Z,5.40
2022-10-16T20:12:33.614Z,5.00
2022-10-16T20:15:06.488Z,4.63
2022-10-16T20:17:38.911Z,4.17
2022-10-16T20:20:10.648Z,3.53
2022-10-16T20:22:49.223Z,4.38
2022-10-16T20:25:28.844Z,3.88
2022-10-16T20:28:04.656Z,4.30
2022-10-16T20:30:40.812Z,3.70
2022-10-16T20:33:16.885Z,3.80
2022-10-16T20:35:59.096Z,3.72
2022-10-16T20:38:50.458Z,5.20
2022-10-16T20:41:22.240Z,5.63
2022-10-16T20:43:57.984Z,5.88
2022-10-16T20:46:37.536Z,5.38
2022-10-16T20:49:35.695Z,6.38
2022-10-16T20:52:39.376Z,6.00
2022-10-16T20:56:07.874Z,6.22
2022-10-16T20:59:19.403Z,6.18
2022-10-16T21:05:24.021Z,5.93
2022-10-16T21:10:53.638Z,6.05
2022-10-16T21:13:39.781Z,6.18
2022-10-16T21:16:43.323Z,5.88
2022-10-16T21:19:16.828Z,5.57
2022-10-16T21:22:10.368Z,5.00
2022-10-16T21:24:48.854Z,4.93
2022-10-16T21:27:39.860Z,5.43
2022-10-16T21:30:16.374Z,5.40
2022-10-16T21:32:57.284Z,5.07
2022-10-16T21:38:42.459Z,6.80
2022-10-16T21:41:28.543Z,4.25
2022-10-16T21:44:12.683Z,2.95
2022-10-16T21:46:59.885Z,3.60
2022-10-16T21:49:32.937Z,2.83
2022-10-16T21:52:04.221Z,2.97
2022-10-16T21:54:47.020Z,3.85
2022-10-16T21:57:15.976Z,3.75
2022-10-16T21:59:57.345Z,3.78
2022-10-16T22:02:51.994Z,3.22
2022-10-16T22:05:23.939Z,3.83
2022-10-16T22:07:58.005Z,3.20
2022-10-16T22:10:36.785Z,3.35
2022-10-16T22:13:17.050Z,3.25
2022-10-16T22:16:20.652Z,3.50
2022-10-16T22:19:06.412Z,3.65
2022-10-16T22:21:41.281Z,3.05
2022-10-16T22:24:22.808Z,3.75
2022-10-16T22:27:01.530Z,3.90
2022-10-16T22:29:42.685Z,3.90
2022-10-16T22:32:28.187Z,4.28
2022-10-16T22:35:13.013Z,4.35
2022-10-16T22:38:04.964Z,4.47
2022-10-16T22:40:50.789Z,4.38
2022-10-16T22:43:42.887Z,3.83
2022-10-16T22:46:49.347Z,3.72
2022-10-16T22:49:22.648Z,4.20
2022-10-16T22:51:55.294Z,3.80
2022-10-16T22:57:25.530Z,4.07
2022-10-16T22:59:57.827Z,4.05
2022-10-16T23:02:29.833Z,4.05
2022-10-16T23:05:09.846Z,3.70
2022-10-16T23:07:53.479Z,3.97
2022-10-16T23:10:33.082Z,3.95
2022-10-16T23:13:09.823Z,3.78
2022-10-16T23:15:56.237Z,3.97
2022-10-16T23:18:30.941Z,3.65
2022-10-16T23:21:28.386Z,3.45
2022-10-16T23:24:02.427Z,3.50
2022-10-16T23:26:37.548Z,3.50
2022-10-16T23:29:08.502Z,3.65
2022-10-16T23:31:37.926Z,4.20
2022-10-16T23:34:19.275Z,4.15
2022-10-16T23:36:58.013Z,4.70
2022-10-16T23:39:35.377Z,4.95
2022-10-16T23:42:11.698Z,5.13
2022-10-16T23:44:47.623Z,5.28
2022-10-16T23:47:19.924Z,5.25
2022-10-16T23:49:57.440Z,5.30
2022-10-16T23:52:26.353Z,6.30
2022-10-16T23:54:57.806Z,5.47
2022-10-16T23:57:29.883Z,4.25
